KDAL/DAL METAR and TAF weather

Enter ICAO airport designator
Station Type Date Time Source
KDAL METAR 2024/07/13 02:53 UTC NOAA

KDAL 130253Z 17010KT 10SM BKN250 30/18 A3006 RMK AO2 SLP172 T03000183 51014


Station Type Date Time Source
KDAL Decoded METAR 2024/07/13 02:53 UTC NOAA

DALLAS LOVE FIELD, TX, United States (KDAL) 32-51N 096-51W 158M
Jul 12, 2024 - 10:53 PM EDT / 2024.07.13 0253 UTC
Wind: from the S (170 degrees) at 12 MPH (10 KT):0
Visibility: 10 mile(s):0
Sky conditions: mostly cloudy
Temperature: 86.0 F (30.0 C)
Dew Point: 64.9 F (18.3 C)
Relative Humidity: 49%
Pressure (altimeter): 30.06 in. Hg (1017 hPa)
Pressure tendency: 0.04 inches (1.4 hPa) higher than three hours ago
ob: KDAL 130253Z 17010KT 10SM BKN250 30/18 A3006 RMK AO2 SLP172 T03000183 51014
cycle: 3

Station Type Date Time Source
KDAL TAF 2024/07/13 03:12 UTC NOAA